Time;durP1;ratioP1;P1;durP2;ratioP2;P2;SDS_P1;SDS_P2;PMS_P1;PMS_P2;Temp;Humidity;BMP_temperature;BMP_pressure;BME280_temperature;BME280_humidity;BME280_pressure;Samples;Min_cycle;Max_cycle;Signal;HPM_P1;HPM_P2
2024/01/22 00:02:04;;;;;;;10.98;3.20;;;;;;;;;;5038996;28;20067;-76
2024/01/22 00:04:30;;;;;;;9.57;4.25;;;;;;;;;;5038767;28;20397;-77
2024/01/22 00:06:56;;;;;;;6.10;2.50;;;;;;;;;;5039342;28;20060;-77
2024/01/22 00:09:22;;;;;;;9.10;3.05;;;;;;;;;;5039645;28;20432;-77
2024/01/22 00:11:48;;;;;;;8.30;3.00;;;;;;;;;;5056946;28;20052;-78
2024/01/22 00:14:14;;;;;;;8.80;3.53;;;;;;;;;;5023451;28;20053;-78
2024/01/22 00:16:40;;;;;;;8.20;2.80;;;;;;;;;;5038638;28;20084;-77
2024/01/22 00:19:07;;;;;;;8.82;3.33;;;;;;;;;;5056112;28;20049;-78
2024/01/22 00:21:33;;;;;;;9.60;3.55;;;;;;;;;;5055902;28;20053;-77
2024/01/22 00:23:59;;;;;;;10.55;2.85;;;;;;;;;;5039759;28;20470;-76
2024/01/22 00:26:25;;;;;;;12.15;3.42;;;;;;;;;;5038151;28;20037;-78
2024/01/22 00:28:51;;;;;;;8.23;2.45;;;;;;;;;;5037839;28;20110;-78
2024/01/22 00:31:17;;;;;;;9.30;2.92;;;;;;;;;;5055610;28;20135;-78
2024/01/22 00:33:44;;;;;;;11.07;3.30;;;;;;;;;;5021934;28;20397;-77
2024/01/22 00:36:19;;;;;;;9.05;3.08;;;;;;;;;;5037405;28;20485;-77
2024/01/22 00:38:48;;;;;;;9.65;3.42;;;;;;;;;;5056152;28;20411;-78
2024/01/22 00:41:14;;;;;;;9.95;2.85;;;;;;;;;;5037768;28;20048;-78
2024/01/22 00:43:40;;;;;;;9.10;3.20;;;;;;;;;;5038392;28;20049;-77
2024/01/22 00:46:06;;;;;;;9.90;3.47;;;;;;;;;;5039006;28;20124;-77
2024/01/22 00:48:32;;;;;;;9.80;2.20;;;;;;;;;;5022162;28;20060;-80
2024/01/22 00:50:58;;;;;;;7.70;2.38;;;;;;;;;;5037586;28;20052;-79
2024/01/22 00:53:24;;;;;;;6.50;1.98;;;;;;;;;;5004796;28;20401;-78
2024/01/22 00:55:51;;;;;;;5.18;2.00;;;;;;;;;;5037448;28;20064;-77
2024/01/22 00:58:17;;;;;;;7.03;2.95;;;;;;;;;;5037598;28;20048;-78
2024/01/22 01:00:43;;;;;;;8.55;2.70;;;;;;;;;;5037415;28;20048;-77
2024/01/22 01:03:09;;;;;;;9.93;2.72;;;;;;;;;;5020860;28;20057;-77
2024/01/22 01:05:35;;;;;;;7.03;3.08;;;;;;;;;;5038157;28;20351;-77
2024/01/22 01:08:02;;;;;;;6.70;2.10;;;;;;;;;;5020850;28;20487;-76
2024/01/22 01:10:28;;;;;;;7.50;2.35;;;;;;;;;;5054995;28;20473;-78
2024/01/22 01:12:54;;;;;;;7.63;2.70;;;;;;;;;;5037488;28;20097;-78
2024/01/22 01:15:22;;;;;;;6.80;2.60;;;;;;;;;;5037174;28;20098;-77
2024/01/22 01:17:48;;;;;;;7.38;2.28;;;;;;;;;;5021427;28;20484;-79
2024/01/22 01:20:14;;;;;;;6.97;2.13;;;;;;;;;;5038289;28;20044;-79
2024/01/22 01:22:40;;;;;;;8.68;2.28;;;;;;;;;;5037889;28;20092;-79
2024/01/22 01:25:06;;;;;;;5.60;2.30;;;;;;;;;;5020892;28;20135;-77
2024/01/22 01:27:32;;;;;;;7.40;2.50;;;;;;;;;;5020235;28;20056;-79
2024/01/22 01:29:58;;;;;;;6.97;2.55;;;;;;;;;;5037452;28;20060;-79
2024/01/22 01:32:26;;;;;;;8.45;2.70;;;;;;;;;;5054619;28;20104;-78
2024/01/22 01:34:52;;;;;;;7.57;2.80;;;;;;;;;;5037401;28;20080;-78
2024/01/22 01:37:18;;;;;;;8.82;2.92;;;;;;;;;;5037607;28;20171;-78
2024/01/22 01:39:44;;;;;;;5.95;2.17;;;;;;;;;;5055049;28;20045;-80
2024/01/22 01:42:10;;;;;;;6.93;2.92;;;;;;;;;;5055012;28;20049;-77
2024/01/22 01:44:39;;;;;;;8.32;3.40;;;;;;;;;;5037663;28;20103;-78
2024/01/22 01:47:06;;;;;;;8.63;3.00;;;;;;;;;;5054698;28;20132;-77
2024/01/22 01:49:32;;;;;;;9.90;2.80;;;;;;;;;;5036346;28;20045;-78
2024/01/22 01:51:58;;;;;;;6.85;2.67;;;;;;;;;;5037181;28;20052;-79
2024/01/22 01:54:25;;;;;;;6.33;2.43;;;;;;;;;;5020180;28;20195;-77
2024/01/22 01:56:52;;;;;;;9.93;3.28;;;;;;;;;;5054666;28;20186;-78
2024/01/22 01:59:19;;;;;;;10.82;2.85;;;;;;;;;;5036435;28;20041;-76
2024/01/22 02:01:45;;;;;;;7.68;2.95;;;;;;;;;;5036349;28;20048;-77
2024/01/22 02:04:11;;;;;;;7.97;2.95;;;;;;;;;;5036689;28;20045;-76
2024/01/22 02:06:37;;;;;;;7.18;3.17;;;;;;;;;;5020538;28;20049;-76
2024/01/22 02:09:03;;;;;;;8.18;3.42;;;;;;;;;;5054425;28;20085;-77
2024/01/22 02:11:29;;;;;;;4.63;1.90;;;;;;;;;;5036561;28;20052;-76
2024/01/22 02:13:56;;;;;;;14.75;3.15;;;;;;;;;;5020083;28;20089;-79
2024/01/22 02:16:22;;;;;;;7.40;2.53;;;;;;;;;;5035921;28;20145;-77
2024/01/22 02:18:48;;;;;;;9.10;3.67;;;;;;;;;;5036221;28;20109;-77
2024/01/22 02:21:14;;;;;;;8.43;3.10;;;;;;;;;;5036209;28;20074;-78
2024/01/22 02:23:41;;;;;;;8.77;2.72;;;;;;;;;;5038197;28;20052;-77
2024/01/22 02:26:07;;;;;;;7.47;3.03;;;;;;;;;;5056728;28;20481;-79
2024/01/22 02:28:33;;;;;;;8.10;3.40;;;;;;;;;;5040638;28;20121;-78
2024/01/22 02:31:01;;;;;;;7.40;3.25;;;;;;;;;;5042384;28;20049;-77
2024/01/22 02:33:27;;;;;;;10.77;2.88;;;;;;;;;;5057058;28;20110;-78
2024/01/22 02:35:53;;;;;;;9.48;3.55;;;;;;;;;;5020297;28;20055;-77
2024/01/22 02:38:19;;;;;;;6.15;3.00;;;;;;;;;;5054807;28;20412;-78
2024/01/22 02:40:45;;;;;;;9.52;3.30;;;;;;;;;;5036283;28;20049;-80
2024/01/22 02:43:12;;;;;;;10.25;3.03;;;;;;;;;;5053978;28;20045;-78
2024/01/22 02:45:38;;;;;;;8.55;3.85;;;;;;;;;;5035392;28;20048;-80
2024/01/22 02:48:04;;;;;;;6.97;2.38;;;;;;;;;;5053540;28;20136;-78
2024/01/22 02:50:30;;;;;;;7.45;2.72;;;;;;;;;;5035941;28;20049;-79
2024/01/22 02:52:56;;;;;;;6.78;2.95;;;;;;;;;;5020888;28;20518;-77
2024/01/22 02:55:23;;;;;;;5.85;2.35;;;;;;;;;;5037074;28;20405;-78
2024/01/22 02:57:49;;;;;;;7.75;2.38;;;;;;;;;;5037314;28;20103;-78
2024/01/22 03:00:16;;;;;;;6.53;2.88;;;;;;;;;;5041014;28;20389;-76
2024/01/22 03:02:42;;;;;;;8.25;3.33;;;;;;;;;;5023542;28;20132;-79
2024/01/22 03:05:08;;;;;;;8.73;2.42;;;;;;;;;;5040084;28;20037;-79
2024/01/22 03:07:34;;;;;;;7.13;3.25;;;;;;;;;;5057846;28;20080;-80
2024/01/22 03:10:00;;;;;;;7.47;3.65;;;;;;;;;;5039810;28;20049;-80
2024/01/22 03:12:26;;;;;;;5.00;2.03;;;;;;;;;;5039914;28;20114;-79
2024/01/22 03:14:52;;;;;;;7.97;2.90;;;;;;;;;;5057913;28;20041;-82
2024/01/22 03:17:18;;;;;;;6.68;2.28;;;;;;;;;;5040185;28;20099;-81
2024/01/22 03:19:44;;;;;;;6.85;2.90;;;;;;;;;;5023652;28;20062;-78
2024/01/22 03:22:10;;;;;;;10.05;3.03;;;;;;;;;;5057306;28;20137;-81
2024/01/22 03:24:37;;;;;;;5.45;2.38;;;;;;;;;;5023506;28;20465;-80
2024/01/22 03:27:04;;;;;;;6.00;2.13;;;;;;;;;;5057467;28;20060;-79
2024/01/22 03:29:30;;;;;;;6.55;2.45;;;;;;;;;;5039449;28;20044;-76
2024/01/22 03:31:56;;;;;;;5.57;2.10;;;;;;;;;;5039740;28;20053;-80
2024/01/22 03:34:22;;;;;;;7.68;1.95;;;;;;;;;;5057600;28;20091;-79
2024/01/22 03:36:48;;;;;;;5.50;2.40;;;;;;;;;;5041176;28;20051;-77
2024/01/22 03:39:14;;;;;;;6.78;3.10;;;;;;;;;;5060452;28;20071;-78
2024/01/22 03:41:41;;;;;;;5.95;2.75;;;;;;;;;;5057810;28;20051;-82
2024/01/22 03:44:07;;;;;;;8.73;2.53;;;;;;;;;;5039398;28;20056;-77
2024/01/22 03:46:33;;;;;;;6.47;2.53;;;;;;;;;;5057181;28;20330;-81
2024/01/22 03:48:59;;;;;;;7.10;2.60;;;;;;;;;;5058670;28;20049;-77
2024/01/22 03:51:25;;;;;;;5.30;2.40;;;;;;;;;;5059922;28;20047;-81
2024/01/22 03:53:51;;;;;;;8.98;3.28;;;;;;;;;;5057066;28;20045;-82
2024/01/22 03:56:20;;;;;;;6.05;3.10;;;;;;;;;;5056905;28;20397;-79
2024/01/22 03:58:46;;;;;;;6.55;2.80;;;;;;;;;;5056820;28;20128;-78
2024/01/22 04:01:19;;;;;;;6.60;2.73;;;;;;;;;;5056718;28;20382;-79
2024/01/22 04:03:45;;;;;;;8.98;3.20;;;;;;;;;;5040583;28;20288;-79
2024/01/22 04:06:11;;;;;;;5.95;2.80;;;;;;;;;;5024016;28;20041;-80
2024/01/22 04:08:37;;;;;;;7.50;3.00;;;;;;;;;;5040591;28;20049;-77
2024/01/22 04:11:04;;;;;;;8.85;2.33;;;;;;;;;;5057674;28;20049;-76
2024/01/22 04:13:30;;;;;;;6.70;3.00;;;;;;;;;;5058231;28;20048;-80
2024/01/22 04:15:56;;;;;;;5.95;2.05;;;;;;;;;;5039338;28;20049;-77
2024/01/22 04:18:22;;;;;;;7.75;2.88;;;;;;;;;;5058631;28;20056;-78
2024/01/22 04:20:48;;;;;;;5.97;2.42;;;;;;;;;;5057978;28;20053;-77
2024/01/22 04:23:14;;;;;;;6.18;1.73;;;;;;;;;;5056908;28;20053;-77
2024/01/22 04:25:40;;;;;;;5.57;2.90;;;;;;;;;;5039423;28;20045;-76
2024/01/22 04:28:06;;;;;;;6.50;3.13;;;;;;;;;;5058015;28;20106;-80
2024/01/22 04:30:32;;;;;;;6.97;2.05;;;;;;;;;;5057473;28;20045;-78
2024/01/22 04:32:58;;;;;;;5.80;2.65;;;;;;;;;;5058621;28;20096;-78
2024/01/22 04:35:24;;;;;;;7.75;3.13;;;;;;;;;;5023241;28;20087;-80
2024/01/22 04:37:53;;;;;;;;;;;;;;;;;;5040559;28;20041;-79
2024/01/22 04:40:19;;;;;;;;;;;;;;;;;;5063239;28;19946;-77
2024/01/22 04:42:45;;;;;;;5.50;1.87;;;;;;;;;;5066946;28;19951;-77
2024/01/22 04:45:11;;;;;;;6.15;2.97;;;;;;;;;;5063578;28;20041;-77
2024/01/22 04:47:37;;;;;;;5.50;2.38;;;;;;;;;;5061094;28;20106;-78
2024/01/22 04:50:04;;;;;;;5.03;1.95;;;;;;;;;;5060737;28;20389;-78
2024/01/22 04:52:30;;;;;;;6.20;2.43;;;;;;;;;;5058916;28;20056;-82
2024/01/22 04:54:56;;;;;;;4.75;2.28;;;;;;;;;;5039619;28;20279;-76
2024/01/22 04:57:22;;;;;;;4.97;2.20;;;;;;;;;;5039537;28;20045;-80
2024/01/22 04:59:48;;;;;;;6.50;2.60;;;;;;;;;;5040640;28;20083;-79
2024/01/22 05:02:14;;;;;;;4.30;1.70;;;;;;;;;;5039139;28;20370;-80
2024/01/22 05:04:41;;;;;;;4.97;1.52;;;;;;;;;;5056534;28;20044;-79
2024/01/22 05:07:07;;;;;;;3.40;1.73;;;;;;;;;;5056655;28;20136;-76
2024/01/22 05:09:33;;;;;;;4.97;1.50;;;;;;;;;;5038606;28;20045;-81
2024/01/22 05:11:59;;;;;;;3.60;1.50;;;;;;;;;;5037834;28;20045;-81
2024/01/22 05:14:25;;;;;;;4.22;1.98;;;;;;;;;;5037896;28;20670;-78
2024/01/22 05:16:51;;;;;;;3.80;1.50;;;;;;;;;;5056385;28;20067;-80
2024/01/22 05:19:17;;;;;;;4.75;1.90;;;;;;;;;;5055560;28;20103;-79
2024/01/22 05:21:43;;;;;;;3.63;1.85;;;;;;;;;;5036972;28;20049;-77
2024/01/22 05:24:09;;;;;;;4.15;1.60;;;;;;;;;;5055152;28;20049;-78
2024/01/22 05:26:36;;;;;;;3.88;1.60;;;;;;;;;;5054921;28;20053;-80
2024/01/22 05:29:02;;;;;;;4.15;1.60;;;;;;;;;;5038308;28;20048;-77
2024/01/22 05:31:28;;;;;;;3.33;1.67;;;;;;;;;;5037761;28;20067;-79
2024/01/22 05:33:54;;;;;;;4.57;1.50;;;;;;;;;;5038595;28;20398;-80
2024/01/22 05:36:20;;;;;;;3.75;1.40;;;;;;;;;;5055615;28;20048;-79
2024/01/22 05:38:46;;;;;;;3.80;0.90;;;;;;;;;;5055197;28;20502;-74
2024/01/22 05:41:12;;;;;;;3.65;1.00;;;;;;;;;;5055936;28;20048;-79
2024/01/22 05:43:38;;;;;;;2.70;0.98;;;;;;;;;;5020934;28;20512;-80
2024/01/22 05:46:04;;;;;;;3.15;0.90;;;;;;;;;;5037084;28;20052;-80
2024/01/22 05:48:33;;;;;;;2.75;0.98;;;;;;;;;;5054677;28;20041;-78
2024/01/22 05:50:59;;;;;;;3.33;0.90;;;;;;;;;;5038113;28;20132;-78
2024/01/22 05:53:25;;;;;;;1.77;0.70;;;;;;;;;;5037575;28;20045;-75
2024/01/22 05:55:51;;;;;;;1.58;0.70;;;;;;;;;;5037736;28;20045;-79
2024/01/22 05:58:17;;;;;;;2.30;0.80;;;;;;;;;;5055639;28;20096;-77
2024/01/22 06:00:43;;;;;;;5.45;0.95;;;;;;;;;;5037753;28;20092;-78
2024/01/22 06:03:09;;;;;;;2.65;0.90;;;;;;;;;;5056375;28;20045;-76
2024/01/22 06:05:36;;;;;;;2.20;0.77;;;;;;;;;;5055360;28;20098;-77
2024/01/22 06:08:03;;;;;;;2.08;0.70;;;;;;;;;;5021253;28;20053;-73
2024/01/22 06:10:30;;;;;;;3.10;0.80;;;;;;;;;;5054268;28;20440;-75
2024/01/22 06:12:56;;;;;;;4.25;0.90;;;;;;;;;;5054793;28;20052;-76
2024/01/22 06:15:22;;;;;;;2.58;0.80;;;;;;;;;;5036214;28;20045;-76
2024/01/22 06:17:49;;;;;;;4.57;0.85;;;;;;;;;;5053884;28;20057;-78
2024/01/22 06:20:16;;;;;;;4.43;1.00;;;;;;;;;;5036240;28;20084;-76
2024/01/22 06:22:42;;;;;;;5.00;0.70;;;;;;;;;;5053737;28;20041;-77
2024/01/22 06:25:09;;;;;;;2.40;0.70;;;;;;;;;;5036132;28;20118;-78
2024/01/22 06:27:35;;;;;;;3.13;0.60;;;;;;;;;;5054235;28;20386;-77
2024/01/22 06:30:03;;;;;;;2.85;0.88;;;;;;;;;;5053910;28;20045;-76
2024/01/22 06:32:29;;;;;;;2.65;0.70;;;;;;;;;;5034888;28;20060;-76
2024/01/22 06:34:55;;;;;;;2.35;0.80;;;;;;;;;;5036162;28;20045;-79
2024/01/22 06:37:26;;;;;;;4.10;1.33;;;;;;;;;;5053961;28;20103;-75
2024/01/22 06:39:52;;;;;;;4.15;0.63;;;;;;;;;;5054436;28;20049;-77
2024/01/22 06:42:19;;;;;;;4.80;0.70;;;;;;;;;;5036922;28;20049;-77
2024/01/22 06:44:45;;;;;;;2.95;0.70;;;;;;;;;;5054030;28;20091;-76
2024/01/22 06:47:12;;;;;;;6.63;0.90;;;;;;;;;;5019682;28;20053;-78
2024/01/22 06:49:38;;;;;;;5.63;0.75;;;;;;;;;;5036836;28;20061;-76
2024/01/22 06:52:04;;;;;;;5.38;0.80;;;;;;;;;;5025011;28;20041;-75
2024/01/22 06:54:30;;;;;;;6.17;0.70;;;;;;;;;;5060523;28;20051;-77
2024/01/22 06:56:56;;;;;;;9.57;0.77;;;;;;;;;;5058161;28;20407;-79
2024/01/22 06:59:23;;;;;;;7.85;0.80;;;;;;;;;;5037904;28;20117;-80
2024/01/22 07:01:49;;;;;;;11.82;1.00;;;;;;;;;;5037929;28;20049;-79
2024/01/22 07:04:15;;;;;;;10.25;0.98;;;;;;;;;;5037243;28;20053;-78
2024/01/22 07:06:41;;;;;;;12.93;1.00;;;;;;;;;;5054115;28;20045;-75
2024/01/22 07:09:09;;;;;;;8.77;0.80;;;;;;;;;;5036816;28;20135;-77
2024/01/22 07:11:37;;;;;;;5.43;0.98;;;;;;;;;;5021846;28;20497;-79
2024/01/22 07:14:03;;;;;;;;;;;;;;;;;;5055965;28;20053;-79
2024/01/22 07:16:31;;;;;;;7.15;0.90;;;;;;;;;;5037698;28;19928;-80
2024/01/22 07:18:58;;;;;;;8.95;0.70;;;;;;;;;;5020288;28;20056;-78
2024/01/22 07:21:24;;;;;;;5.75;0.57;;;;;;;;;;5036529;28;20045;-78
2024/01/22 07:23:50;;;;;;;8.48;0.90;;;;;;;;;;5036812;28;20057;-80
2024/01/22 07:26:16;;;;;;;10.95;1.77;;;;;;;;;;5053663;28;20041;-78
2024/01/22 07:28:42;;;;;;;10.63;0.85;;;;;;;;;;5054002;28;20052;-76
2024/01/22 07:31:08;;;;;;;13.40;1.40;;;;;;;;;;5054103;28;20049;-79
2024/01/22 07:33:37;;;;;;;11.82;0.95;;;;;;;;;;5036646;28;20060;-79
2024/01/22 07:36:03;;;;;;;9.85;1.10;;;;;;;;;;5054178;28;20434;-81
2024/01/22 07:38:29;;;;;;;11.90;1.30;;;;;;;;;;5054147;28;20045;-75
2024/01/22 07:40:55;;;;;;;10.13;1.30;;;;;;;;;;5036833;28;20075;-78
2024/01/22 07:43:22;;;;;;;10.65;1.23;;;;;;;;;;5055569;28;20057;-82
2024/01/22 07:45:48;;;;;;;10.27;0.90;;;;;;;;;;5057411;28;20111;-76
2024/01/22 07:48:15;;;;;;;7.88;0.80;;;;;;;;;;5058091;28;20045;-77
2024/01/22 07:50:41;;;;;;;8.73;1.00;;;;;;;;;;5057931;28;20056;-79
2024/01/22 07:53:07;;;;;;;10.53;1.20;;;;;;;;;;5023817;28;20057;-79
2024/01/22 07:55:33;;;;;;;8.70;1.00;;;;;;;;;;5039852;28;20508;-78
2024/01/22 07:58:00;;;;;;;10.83;0.97;;;;;;;;;;5040251;28;20036;-78
2024/01/22 08:00:26;;;;;;;11.37;1.50;;;;;;;;;;5041054;28;20151;-80
2024/01/22 08:02:52;;;;;;;9.27;0.98;;;;;;;;;;5024530;28;20049;-79
2024/01/22 08:05:18;;;;;;;8.02;0.93;;;;;;;;;;5040665;28;20049;-78
2024/01/22 08:07:45;;;;;;;10.35;1.50;;;;;;;;;;5059009;28;20481;-76
2024/01/22 08:10:12;;;;;;;9.85;1.17;;;;;;;;;;5040459;28;20037;-82
2024/01/22 08:12:38;;;;;;;7.30;1.08;;;;;;;;;;5058414;28;20053;-79
2024/01/22 08:15:04;;;;;;;6.53;0.90;;;;;;;;;;5007643;28;20053;-79
2024/01/22 08:17:31;;;;;;;8.05;0.90;;;;;;;;;;5058071;28;20040;-75
2024/01/22 08:19:57;;;;;;;7.47;0.80;;;;;;;;;;5057690;28;20052;-78
2024/01/22 08:22:23;;;;;;;9.07;0.70;;;;;;;;;;5040380;28;20088;-78
2024/01/22 08:24:50;;;;;;;7.72;0.80;;;;;;;;;;5040351;28;20076;-76
2024/01/22 08:27:16;;;;;;;10.18;0.90;;;;;;;;;;5058850;28;20060;-79
2024/01/22 08:29:42;;;;;;;10.48;1.00;;;;;;;;;;5056964;28;20084;-79
2024/01/22 08:32:08;;;;;;;9.70;1.10;;;;;;;;;;5021788;28;20057;-74
2024/01/22 08:34:37;;;;;;;12.18;1.23;;;;;;;;;;5056930;28;20056;-78
2024/01/22 08:37:04;;;;;;;8.38;1.20;;;;;;;;;;5022181;28;20389;-76
2024/01/22 08:39:30;;;;;;;13.10;1.40;;;;;;;;;;5055612;28;20449;-78
2024/01/22 08:41:56;;;;;;;9.60;1.00;;;;;;;;;;5056026;28;20127;-74
2024/01/22 08:44:22;;;;;;;11.05;1.65;;;;;;;;;;5038246;28;20048;-72
2024/01/22 08:46:48;;;;;;;10.10;1.08;;;;;;;;;;5021685;28;20054;-72
2024/01/22 08:49:14;;;;;;;17.27;1.70;;;;;;;;;;5055608;28;20049;-75
2024/01/22 08:51:40;;;;;;;12.23;1.63;;;;;;;;;;5055731;28;20045;-74
2024/01/22 08:54:06;;;;;;;9.88;1.05;;;;;;;;;;5020979;28;20107;-71
2024/01/22 08:56:33;;;;;;;13.95;1.50;;;;;;;;;;5054172;28;20052;-72
2024/01/22 08:58:59;;;;;;;8.75;1.08;;;;;;;;;;5037914;28;20068;-74
2024/01/22 09:01:25;;;;;;;10.13;1.33;;;;;;;;;;5055710;28;20041;-73
2024/01/22 09:03:51;;;;;;;10.93;1.20;;;;;;;;;;5055861;28;20063;-72
2024/01/22 09:06:17;;;;;;;11.00;1.42;;;;;;;;;;5021456;28;20051;-73
2024/01/22 09:08:43;;;;;;;10.93;1.48;;;;;;;;;;5058407;28;20044;-72
2024/01/22 09:11:10;;;;;;;13.38;1.15;;;;;;;;;;5040170;28;20045;-74
2024/01/22 09:13:40;;;;;;;8.83;1.10;;;;;;;;;;5057512;28;20048;-73
2024/01/22 09:16:08;;;;;;;12.40;0.93;;;;;;;;;;5055917;28;20128;-75
2024/01/22 09:18:35;;;;;;;15.70;1.65;;;;;;;;;;5055169;28;20056;-73
2024/01/22 09:21:03;;;;;;;12.90;1.30;;;;;;;;;;5036818;28;20489;-73
2024/01/22 09:23:29;;;;;;;14.88;1.45;;;;;;;;;;5055785;28;20081;-74
2024/01/22 09:25:55;;;;;;;17.77;2.22;;;;;;;;;;5055941;28;20049;-75
2024/01/22 09:28:22;;;;;;;21.25;2.85;;;;;;;;;;5055730;28;20045;-76
2024/01/22 09:30:48;;;;;;;;;;;;;;;;;;5055952;28;20064;-77
2024/01/22 09:33:14;;;;;;;24.70;2.93;;;;;;;;;;5056292;28;19920;-76
2024/01/22 09:35:41;;;;;;;26.13;2.22;;;;;;;;;;5055204;28;20059;-75
2024/01/22 09:38:07;;;;;;;27.77;2.70;;;;;;;;;;5022027;28;20059;-80
2024/01/22 09:40:33;;;;;;;25.08;3.20;;;;;;;;;;5037520;28;20481;-74
2024/01/22 09:43:03;;;;;;;33.00;3.95;;;;;;;;;;5037831;28;20350;-77
2024/01/22 09:45:30;;;;;;;25.08;3.28;;;;;;;;;;5055330;28;20401;-77
2024/01/22 09:47:57;;;;;;;30.23;2.80;;;;;;;;;;5055622;28;20366;-76
2024/01/22 09:50:23;;;;;;;30.42;2.95;;;;;;;;;;5055944;28;20040;-74
2024/01/22 09:52:52;;;;;;;31.40;3.58;;;;;;;;;;5038578;28;20102;-78
2024/01/22 09:55:18;;;;;;;35.42;3.75;;;;;;;;;;5054060;28;20049;-78
2024/01/22 09:57:44;;;;;;;35.42;3.08;;;;;;;;;;5038137;28;20053;-75
2024/01/22 10:00:12;;;;;;;36.13;3.85;;;;;;;;;;5037316;28;20067;-75
2024/01/22 10:02:40;;;;;;;25.30;3.35;;;;;;;;;;5054575;28;20128;-78
2024/01/22 10:05:08;;;;;;;27.38;3.25;;;;;;;;;;5054630;28;20052;-78
2024/01/22 10:07:33;;;;;;;;;;;;;;;;;;5055325;28;20084;-78
2024/01/22 10:10:00;;;;;;;24.50;2.97;;;;;;;;;;5055667;28;19921;-76
2024/01/22 10:12:26;;;;;;;33.78;3.20;;;;;;;;;;5057466;28;20245;-75
2024/01/22 10:14:52;;;;;;;39.15;4.10;;;;;;;;;;5056941;28;20053;-77
2024/01/22 10:17:20;;;;;;;34.92;3.63;;;;;;;;;;5038757;28;20106;-75
2024/01/22 10:19:49;;;;;;;29.17;3.95;;;;;;;;;;5039365;28;20053;-79
2024/01/22 10:22:26;;;;;;;31.38;4.75;;;;;;;;;;5021660;28;20055;-78
2024/01/22 10:24:52;;;;;;;;;;;;;;;;;;5055542;28;20059;-78
2024/01/22 10:27:18;;;;;;;39.23;3.97;;;;;;;;;;5022650;28;19925;-77
2024/01/22 10:29:48;;;;;;;30.52;3.80;;;;;;;;;;5022565;28;20124;-78
2024/01/22 10:32:20;;;;;;;27.80;3.22;;;;;;;;;;5056510;28;20084;-79
2024/01/22 10:34:50;;;;;;;21.30;2.92;;;;;;;;;;5037788;28;20040;-76
2024/01/22 10:37:17;;;;;;;25.70;3.83;;;;;;;;;;5039001;28;20106;-79
2024/01/22 10:39:44;;;;;;;31.33;3.50;;;;;;;;;;5022376;28;20144;-73
2024/01/22 10:42:10;;;;;;;;;;;;;;;;;;5040129;28;20396;-80
2024/01/22 10:44:40;;;;;;;27.60;3.27;;;;;;;;;;5043760;28;20007;-79
2024/01/22 10:47:06;;;;;;;28.33;3.40;;;;;;;;;;5040608;28;20037;-78
2024/01/22 10:49:33;;;;;;;28.53;3.27;;;;;;;;;;5040511;28;20057;-77
2024/01/22 10:52:00;;;;;;;33.90;3.53;;;;;;;;;;5026701;28;20310;-80
2024/01/22 10:54:27;;;;;;;32.83;5.25;;;;;;;;;;5062093;28;20073;-78
2024/01/22 10:57:11;;;;;;;31.38;2.85;;;;;;;;;;5042788;28;20053;-81
2024/01/22 10:59:46;;;;;;;29.88;3.00;;;;;;;;;;5045395;28;20101;-79
2024/01/22 11:02:28;;;;;;;24.42;2.60;;;;;;;;;;5065618;28;20041;-79
2024/01/22 11:04:59;;;;;;;30.75;3.30;;;;;;;;;;5061504;28;20049;-82
2024/01/22 11:07:30;;;;;;;27.88;2.90;;;;;;;;;;5043852;28;20072;-78
2024/01/22 11:10:01;;;;;;;30.05;3.28;;;;;;;;;;5041606;28;20055;-81
2024/01/22 11:12:30;;;;;;;31.50;2.90;;;;;;;;;;5045217;28;20436;-84
2024/01/22 11:14:56;;;;;;;23.55;2.75;;;;;;;;;;5059800;28;20037;-79
2024/01/22 11:17:22;;;;;;;22.90;2.70;;;;;;;;;;5058375;28;20052;-81
2024/01/22 11:19:50;;;;;;;28.00;3.22;;;;;;;;;;5061783;28;20053;-84
2024/01/22 11:22:21;;;;;;;29.30;3.60;;;;;;;;;;5050287;28;20052;-79
2024/01/22 11:25:09;;;;;;;27.92;3.38;;;;;;;;;;5046176;28;20136;-85
2024/01/22 11:27:42;;;;;;;29.48;3.83;;;;;;;;;;5064905;28;20139;-82
2024/01/22 11:30:21;;;;;;;22.63;2.75;;;;;;;;;;5060283;28;20133;-79
2024/01/22 11:32:47;;;;;;;30.92;3.38;;;;;;;;;;5059884;28;20393;-80
2024/01/22 11:35:13;;;;;;;26.20;2.83;;;;;;;;;;5041285;28;20044;-81
2024/01/22 11:37:40;;;;;;;21.40;2.95;;;;;;;;;;5040845;28;20080;-79
2024/01/22 11:40:07;;;;;;;25.63;3.03;;;;;;;;;;5041148;28;20124;-78
2024/01/22 11:42:34;;;;;;;24.45;3.22;;;;;;;;;;5059647;28;20080;-80
2024/01/22 11:45:29;;;;;;;24.10;2.92;;;;;;;;;;5059072;28;20127;-78
2024/01/22 11:51:23;;;;;;;22.63;2.80;;;;;;;;;;4977630;28;20031;-78
2024/01/22 11:53:53;;;;;;;17.73;2.30;;;;;;;;;;5043667;28;20118;-78
2024/01/22 11:56:23;;;;;;;24.27;3.10;;;;;;;;;;5010562;28;20052;-80
2024/01/22 11:58:52;;;;;;;25.00;2.63;;;;;;;;;;5041910;28;20041;-79
2024/01/22 12:01:20;;;;;;;23.77;3.13;;;;;;;;;;5060473;28;20128;-78
2024/01/22 12:03:46;;;;;;;;;;;;;;;;;;5044108;28;20501;-78
2024/01/22 12:06:12;;;;;;;18.80;2.00;;;;;;;;;;5059819;28;19920;-77
2024/01/22 12:08:38;;;;;;;21.67;2.40;;;;;;;;;;5058189;28;20061;-77
2024/01/22 12:11:14;;;;;;;24.23;2.92;;;;;;;;;;5041249;28;20083;-77
2024/01/22 12:13:41;;;;;;;22.48;2.20;;;;;;;;;;5058140;28;20191;-74
2024/01/22 12:16:13;;;;;;;22.15;2.75;;;;;;;;;;5057286;28;20045;-77
2024/01/22 12:18:39;;;;;;;16.58;1.50;;;;;;;;;;5039011;28;20108;-75
2024/01/22 12:21:06;;;;;;;23.02;2.40;;;;;;;;;;5038845;28;20052;-79
2024/01/22 12:23:34;;;;;;;;;;;;;;;;;;5039340;28;20059;-76
2024/01/22 12:26:01;;;;;;;18.58;1.65;;;;;;;;;;5038857;28;20018;-77
2024/01/22 12:28:28;;;;;;;19.13;2.60;;;;;;;;;;5056636;28;20053;-73
2024/01/22 12:31:01;;;;;;;13.95;2.22;;;;;;;;;;5037615;28;20378;-77
2024/01/22 12:33:28;;;;;;;21.80;2.22;;;;;;;;;;5038530;28;20057;-76
2024/01/22 12:36:05;;;;;;;19.40;2.17;;;;;;;;;;5038863;28;20049;-74
2024/01/22 12:38:33;;;;;;;23.80;1.90;;;;;;;;;;5022578;28;20071;-78
2024/01/22 12:41:08;;;;;;;16.08;2.13;;;;;;;;;;5038756;28;20106;-75
2024/01/22 12:43:35;;;;;;;22.65;1.92;;;;;;;;;;5056300;28;20049;-76
2024/01/22 12:46:20;;;;;;;17.10;2.22;;;;;;;;;;5039235;28;20370;-78
2024/01/22 12:48:46;;;;;;;19.45;1.77;;;;;;;;;;5039280;28;20045;-76
2024/01/22 12:51:13;;;;;;;19.02;1.92;;;;;;;;;;5038346;28;20551;-75
2024/01/22 12:53:44;;;;;;;21.33;1.98;;;;;;;;;;5038477;28;20077;-76
2024/01/22 12:56:11;;;;;;;10.13;1.45;;;;;;;;;;5038429;28;20056;-76
2024/01/22 12:58:37;;;;;;;18.40;1.67;;;;;;;;;;5055663;28;20056;-76
2024/01/22 13:01:04;;;;;;;17.70;2.90;;;;;;;;;;5039010;28;20125;-75
2024/01/22 13:03:31;;;;;;;26.10;2.60;;;;;;;;;;5038309;28;20052;-78
2024/01/22 13:05:57;;;;;;;19.10;1.87;;;;;;;;;;5021918;28;20123;-76
2024/01/22 13:08:23;;;;;;;19.27;1.50;;;;;;;;;;5037849;28;20051;-76
2024/01/22 13:10:49;;;;;;;19.90;2.42;;;;;;;;;;5055587;28;20182;-76
2024/01/22 13:13:18;;;;;;;22.20;2.90;;;;;;;;;;5021066;28;20052;-77
2024/01/22 13:15:46;;;;;;;17.98;2.05;;;;;;;;;;5037551;28;20081;-76
2024/01/22 13:18:12;;;;;;;23.42;2.70;;;;;;;;;;5055539;28;20095;-76
2024/01/22 13:20:38;;;;;;;25.02;3.55;;;;;;;;;;5038374;28;20458;-75
2024/01/22 13:23:04;;;;;;;13.35;1.48;;;;;;;;;;5021435;28;20048;-76
2024/01/22 13:25:30;;;;;;;15.65;1.63;;;;;;;;;;5021271;28;20037;-74
2024/01/22 13:27:57;;;;;;;15.90;1.52;;;;;;;;;;5021070;28;20060;-74
2024/01/22 13:30:24;;;;;;;21.40;1.67;;;;;;;;;;5021683;28;20120;-75
2024/01/22 13:32:50;;;;;;;15.93;1.77;;;;;;;;;;5020734;28;20057;-77
2024/01/22 13:35:16;;;;;;;23.67;1.98;;;;;;;;;;5038482;28;20083;-75
2024/01/22 13:37:42;;;;;;;22.05;2.40;;;;;;;;;;5060270;28;20068;-76
2024/01/22 13:40:09;;;;;;;24.23;2.78;;;;;;;;;;5043732;28;20041;-76
2024/01/22 13:42:36;;;;;;;22.15;1.88;;;;;;;;;;5040359;28;20118;-75
2024/01/22 13:45:03;;;;;;;16.80;2.00;;;;;;;;;;5056172;28;20049;-75
2024/01/22 13:47:29;;;;;;;23.73;2.10;;;;;;;;;;5037890;28;20055;-75
2024/01/22 13:50:01;;;;;;;17.35;2.33;;;;;;;;;;5020796;28;20048;-79
2024/01/22 13:52:27;;;;;;;18.35;1.88;;;;;;;;;;5037537;28;20055;-75
2024/01/22 13:54:53;;;;;;;14.00;2.15;;;;;;;;;;5036983;28;20048;-77
2024/01/22 13:57:20;;;;;;;12.73;1.70;;;;;;;;;;5037522;28;20080;-77
2024/01/22 13:59:46;;;;;;;17.60;2.78;;;;;;;;;;5055374;28;20355;-76
2024/01/22 14:02:12;;;;;;;16.57;1.63;;;;;;;;;;5037162;28;20056;-77
2024/01/22 14:04:41;;;;;;;13.02;1.13;;;;;;;;;;5037164;28;20288;-75
2024/01/22 14:07:07;;;;;;;22.25;1.50;;;;;;;;;;5036314;28;20056;-75
2024/01/22 14:09:33;;;;;;;12.20;1.08;;;;;;;;;;5040183;28;20060;-76
2024/01/22 14:12:00;;;;;;;13.45;1.70;;;;;;;;;;5040979;28;20092;-77
2024/01/22 14:14:26;;;;;;;21.87;2.33;;;;;;;;;;5037074;28;20049;-77
2024/01/22 14:16:52;;;;;;;17.73;2.15;;;;;;;;;;5036683;28;20037;-75
2024/01/22 14:19:18;;;;;;;20.80;2.40;;;;;;;;;;5054516;28;20056;-78
2024/01/22 14:21:44;;;;;;;17.13;1.70;;;;;;;;;;5020035;28;20115;-77
2024/01/22 14:24:10;;;;;;;16.13;1.65;;;;;;;;;;5036616;28;20505;-78
2024/01/22 14:26:36;;;;;;;17.75;2.58;;;;;;;;;;5020015;28;20106;-77
2024/01/22 14:29:03;;;;;;;16.45;1.63;;;;;;;;;;5054195;28;20111;-78
2024/01/22 14:31:29;;;;;;;16.17;2.35;;;;;;;;;;5036575;28;20045;-79
2024/01/22 14:33:56;;;;;;;21.43;2.20;;;;;;;;;;5020330;28;20150;-76
2024/01/22 14:36:22;;;;;;;16.30;1.52;;;;;;;;;;5036227;28;20417;-77
2024/01/22 14:38:49;;;;;;;14.93;1.63;;;;;;;;;;5036101;28;20059;-76
2024/01/22 14:41:17;;;;;;;17.98;2.25;;;;;;;;;;5037132;28;20067;-78
2024/01/22 14:43:43;;;;;;;20.38;1.90;;;;;;;;;;5036379;28;20056;-76